NOK313 ROAH-RKPC
Flight info
| Callsign | NOK313 |
|---|---|
| Flight time | 1h 22m |
| Altitude | 37000 |
| Route | LAVON DCT YURIX Y27 RUSAR/N0451F380 A586 RUGMA/N0454F370 A586 TOSAN TOSAN2P |
| Aircraft | B738/M-SDE2E3FGHIRWXY/LB1 |
Departure
| Time | 2026-04-25 22:28 |
|---|---|
| Airport | Naha International Airport (ROAH) |
Arrival
| Time | 2026-04-25 23:50 |
|---|---|
| Airport | Jeju International Airport (RKPC) |
| Time | Latitude | Longitude | Altitude | Speed | Heading |
|---|---|---|---|---|---|
| 2026-04-25 21:58 | 26.20711 | 127.64920 | 30 ft | 0 kts | 28° |
| 2026-04-25 22:10 | 26.20698 | 127.64912 | 29 ft | 2 kts | 27° |
| 2026-04-25 22:10 | 26.20690 | 127.64908 | 29 ft | 2 kts | 24° |
| 2026-04-25 22:10 | 26.20675 | 127.64905 | 29 ft | 2 kts | 355° |
| 2026-04-25 22:11 | 26.20660 | 127.64908 | 29 ft | 2 kts | 334° |
| 2026-04-25 22:11 | 26.20648 | 127.64918 | 30 ft | 2 kts | 311° |
| 2026-04-25 22:11 | 26.20640 | 127.64932 | 30 ft | 2 kts | 289° |
| 2026-04-25 22:11 | 26.20638 | 127.64945 | 31 ft | 0 kts | 271° |
| 2026-04-25 22:12 | 26.20638 | 127.64953 | 31 ft | 0 kts | 268° |
| 2026-04-25 22:12 | 26.20638 | 127.64954 | 31 ft | 0 kts | 268° |
| 2026-04-25 22:12 | 26.20638 | 127.64953 | 31 ft | 0 kts | 268° |
| 2026-04-25 22:15 | 26.20638 | 127.64943 | 30 ft | 4 kts | 265° |
| 2026-04-25 22:16 | 26.20636 | 127.64909 | 29 ft | 5 kts | 268° |
| 2026-04-25 22:16 | 26.20633 | 127.64851 | 27 ft | 9 kts | 267° |
| 2026-04-25 22:16 | 26.20609 | 127.64774 | 25 ft | 11 kts | 225° |
| 2026-04-25 22:16 | 26.20531 | 127.64751 | 25 ft | 12 kts | 178° |
| 2026-04-25 22:17 | 26.20442 | 127.64754 | 25 ft | 12 kts | 178° |
| 2026-04-25 22:17 | 26.20352 | 127.64758 | 25 ft | 13 kts | 178° |
| 2026-04-25 22:17 | 26.20258 | 127.64762 | 25 ft | 13 kts | 178° |
| 2026-04-25 22:17 | 26.20162 | 127.64767 | 25 ft | 14 kts | 177° |
| 2026-04-25 22:18 | 26.20064 | 127.64771 | 25 ft | 14 kts | 178° |
| 2026-04-25 22:18 | 26.19966 | 127.64777 | 26 ft | 13 kts | 177° |
| 2026-04-25 22:18 | 26.19867 | 127.64780 | 26 ft | 14 kts | 178° |
| 2026-04-25 22:18 | 26.19768 | 127.64786 | 27 ft | 13 kts | 177° |
| 2026-04-25 22:19 | 26.19675 | 127.64790 | 29 ft | 13 kts | 178° |
| 2026-04-25 22:19 | 26.19583 | 127.64793 | 29 ft | 13 kts | 178° |
| 2026-04-25 22:19 | 26.19488 | 127.64798 | 29 ft | 13 kts | 178° |
| 2026-04-25 22:19 | 26.19392 | 127.64803 | 29 ft | 14 kts | 177° |
| 2026-04-25 22:20 | 26.19291 | 127.64808 | 29 ft | 14 kts | 178° |
| 2026-04-25 22:20 | 26.19192 | 127.64811 | 29 ft | 12 kts | 177° |
| 2026-04-25 22:20 | 26.19098 | 127.64816 | 28 ft | 14 kts | 176° |
| 2026-04-25 22:20 | 26.19007 | 127.64822 | 26 ft | 12 kts | 177° |
| 2026-04-25 22:21 | 26.18914 | 127.64826 | 26 ft | 13 kts | 178° |
| 2026-04-25 22:21 | 26.18819 | 127.64829 | 26 ft | 14 kts | 178° |
| 2026-04-25 22:21 | 26.18719 | 127.64835 | 26 ft | 14 kts | 177° |
| 2026-04-25 22:21 | 26.18616 | 127.64841 | 25 ft | 15 kts | 178° |
| 2026-04-25 22:22 | 26.18501 | 127.64844 | 23 ft | 17 kts | 178° |
| 2026-04-25 22:22 | 26.18375 | 127.64851 | 21 ft | 16 kts | 178° |
| 2026-04-25 22:22 | 26.18281 | 127.64854 | 20 ft | 0 kts | 178° |
| 2026-04-25 22:22 | 26.18274 | 127.64851 | 20 ft | 1 kts | 200° |
| 2026-04-25 22:23 | 26.18258 | 127.64838 | 20 ft | 4 kts | 231° |
| 2026-04-25 22:23 | 26.18245 | 127.64803 | 19 ft | 5 kts | 262° |
| 2026-04-25 22:23 | 26.18242 | 127.64764 | 19 ft | 0 kts | 267° |
| 2026-04-25 22:26 | 26.18241 | 127.64741 | 19 ft | 5 kts | 269° |
| 2026-04-25 22:26 | 26.18248 | 127.64692 | 19 ft | 6 kts | 291° |
| 2026-04-25 22:26 | 26.18277 | 127.64646 | 18 ft | 8 kts | 330° |
| 2026-04-25 22:27 | 26.18319 | 127.64640 | 18 ft | 4 kts | 358° |
| 2026-04-25 22:27 | 26.18346 | 127.64639 | 19 ft | 3 kts | 0° |
| 2026-04-25 22:27 | 26.18365 | 127.64639 | 19 ft | 2 kts | 0° |
| 2026-04-25 22:27 | 26.18435 | 127.64639 | 20 ft | 31 kts | 359° |
| 2026-04-25 22:28 | 26.18896 | 127.64618 | 23 ft | 109 kts | 359° |
| 2026-04-25 22:28 | 26.19937 | 127.64573 | 189 ft | 177 kts | 359° |
| 2026-04-25 22:28 | 26.21249 | 127.64539 | 1024 ft | 201 kts | 360° |
| 2026-04-25 22:28 | 26.22484 | 127.64551 | 2629 ft | 174 kts | 358° |
| 2026-04-25 22:29 | 26.23727 | 127.64364 | 3290 ft | 191 kts | 340° |
| 2026-04-25 22:29 | 26.24778 | 127.63451 | 4003 ft | 203 kts | 301° |
| 2026-04-25 22:29 | 26.25121 | 127.61913 | 4744 ft | 216 kts | 269° |
| 2026-04-25 22:30 | 26.24183 | 127.58487 | 6386 ft | 246 kts | 249° |
| 2026-04-25 22:30 | 26.23551 | 127.56668 | 7300 ft | 258 kts | 250° |
| 2026-04-25 22:30 | 26.22923 | 127.54784 | 8271 ft | 266 kts | 250° |
| 2026-04-25 22:30 | 26.22510 | 127.53521 | 8969 ft | 268 kts | 250° |
| 2026-04-25 22:31 | 26.21787 | 127.50900 | 10432 ft | 271 kts | 258° |
| 2026-04-25 22:31 | 26.21661 | 127.48802 | 11247 ft | 283 kts | 271° |
| 2026-04-25 22:31 | 26.22052 | 127.46588 | 12014 ft | 299 kts | 284° |
| 2026-04-25 22:31 | 26.22882 | 127.44429 | 12724 ft | 315 kts | 294° |
| 2026-04-25 22:32 | 26.24170 | 127.42406 | 13435 ft | 332 kts | 308° |
| 2026-04-25 22:32 | 26.26042 | 127.40748 | 13977 ft | 357 kts | 325° |
| 2026-04-25 22:32 | 26.28426 | 127.39697 | 14503 ft | 382 kts | 341° |
| 2026-04-25 22:32 | 26.31158 | 127.39351 | 14997 ft | 406 kts | 356° |
| 2026-04-25 22:33 | 26.34032 | 127.39648 | 15554 ft | 421 kts | 4° |
| 2026-04-25 22:33 | 26.36953 | 127.40176 | 16204 ft | 431 kts | 6° |
| 2026-04-25 22:33 | 26.39916 | 127.40788 | 16930 ft | 437 kts | 7° |
| 2026-04-25 22:33 | 26.42907 | 127.41419 | 17595 ft | 443 kts | 7° |
| 2026-04-25 22:34 | 26.45941 | 127.42153 | 18215 ft | 453 kts | 14° |
| 2026-04-25 22:34 | 26.48830 | 127.43646 | 18828 ft | 464 kts | 32° |
| 2026-04-25 22:34 | 26.51430 | 127.45847 | 19558 ft | 469 kts | 40° |
| 2026-04-25 22:34 | 26.53925 | 127.48151 | 20143 ft | 474 kts | 34° |
| 2026-04-25 22:35 | 26.56822 | 127.49918 | 20756 ft | 477 kts | 22° |
| 2026-04-25 22:35 | 26.59996 | 127.51132 | 21344 ft | 480 kts | 12° |
| 2026-04-25 22:35 | 26.63252 | 127.51775 | 22060 ft | 478 kts | 2° |
| 2026-04-25 22:35 | 26.66616 | 127.51883 | 22513 ft | 481 kts | 353° |
| 2026-04-25 22:36 | 26.69924 | 127.51473 | 23112 ft | 482 kts | 347° |
| 2026-04-25 22:36 | 26.73242 | 127.50846 | 23652 ft | 487 kts | 346° |
| 2026-04-25 22:36 | 26.76621 | 127.50257 | 24265 ft | 492 kts | 347° |
| 2026-04-25 22:36 | 26.80082 | 127.49880 | 24639 ft | 505 kts | 353° |
| 2026-04-25 22:37 | 26.83598 | 127.49812 | 25394 ft | 507 kts | 357° |
| 2026-04-25 22:37 | 26.87121 | 127.50012 | 26016 ft | 513 kts | 1° |
| 2026-04-25 22:37 | 26.90740 | 127.50232 | 26384 ft | 518 kts | 356° |
| 2026-04-25 22:37 | 26.94299 | 127.50147 | 26852 ft | 522 kts | 354° |
| 2026-04-25 22:38 | 26.97986 | 127.50013 | 27377 ft | 526 kts | 354° |
| 2026-04-25 22:38 | 27.01645 | 127.49884 | 27831 ft | 531 kts | 354° |
| 2026-04-25 22:38 | 27.05338 | 127.49782 | 28648 ft | 528 kts | 356° |
| 2026-04-25 22:38 | 27.09004 | 127.50067 | 29487 ft | 528 kts | 4° |
| 2026-04-25 22:39 | 27.12589 | 127.50906 | 30351 ft | 527 kts | 13° |
| 2026-04-25 22:39 | 27.16105 | 127.52177 | 31026 ft | 527 kts | 18° |
| 2026-04-25 22:39 | 27.19516 | 127.53603 | 31589 ft | 529 kts | 18° |
| 2026-04-25 22:39 | 27.23033 | 127.55045 | 32020 ft | 532 kts | 17° |
| 2026-04-25 22:40 | 27.26565 | 127.56343 | 32486 ft | 533 kts | 14° |
| 2026-04-25 22:40 | 27.30161 | 127.57483 | 33001 ft | 533 kts | 11° |
| 2026-04-25 22:40 | 27.33766 | 127.58463 | 33441 ft | 534 kts | 9° |
| 2026-04-25 22:40 | 27.37409 | 127.59325 | 33934 ft | 534 kts | 7° |
| 2026-04-25 22:41 | 27.41056 | 127.60099 | 34487 ft | 533 kts | 5° |
| 2026-04-25 22:41 | 27.44698 | 127.60817 | 35022 ft | 532 kts | 4° |
| 2026-04-25 22:41 | 27.48343 | 127.61502 | 35483 ft | 533 kts | 3° |
| 2026-04-25 22:41 | 27.51999 | 127.62105 | 35980 ft | 530 kts | 0° |
| 2026-04-25 22:42 | 27.55648 | 127.62527 | 36528 ft | 526 kts | 358° |
| 2026-04-25 22:42 | 27.59288 | 127.62833 | 36961 ft | 525 kts | 356° |
| 2026-04-25 22:42 | 27.66633 | 127.63326 | 36988 ft | 529 kts | 356° |
| 2026-04-25 22:43 | 27.73963 | 127.63856 | 36989 ft | 530 kts | 356° |
| 2026-04-25 22:43 | 27.81436 | 127.64462 | 36988 ft | 545 kts | 357° |
| 2026-04-25 22:44 | 27.88989 | 127.65138 | 36989 ft | 541 kts | 357° |
| 2026-04-25 22:44 | 27.96522 | 127.65845 | 36989 ft | 542 kts | 357° |
| 2026-04-25 22:45 | 28.04035 | 127.66554 | 36989 ft | 540 kts | 357° |
| 2026-04-25 22:45 | 28.11575 | 127.67256 | 36988 ft | 543 kts | 357° |
| 2026-04-25 22:46 | 28.19089 | 127.67953 | 36988 ft | 544 kts | 357° |
| 2026-04-25 22:46 | 28.26635 | 127.68651 | 36987 ft | 543 kts | 357° |
| 2026-04-25 22:47 | 28.34212 | 127.69356 | 36988 ft | 544 kts | 357° |
| 2026-04-25 22:47 | 28.41828 | 127.70058 | 36984 ft | 547 kts | 357° |
| 2026-04-25 22:48 | 28.49366 | 127.70765 | 36984 ft | 544 kts | 357° |
| 2026-04-25 22:48 | 28.56972 | 127.71474 | 36986 ft | 545 kts | 357° |
| 2026-04-25 22:49 | 28.64560 | 127.72180 | 36985 ft | 547 kts | 357° |
| 2026-04-25 22:49 | 28.72119 | 127.72887 | 36987 ft | 546 kts | 357° |
| 2026-04-25 22:50 | 28.79738 | 127.73601 | 36987 ft | 549 kts | 357° |
| 2026-04-25 22:50 | 28.87308 | 127.74311 | 36987 ft | 548 kts | 357° |
| 2026-04-25 22:51 | 28.94926 | 127.75025 | 36989 ft | 549 kts | 357° |
| 2026-04-25 22:51 | 29.02549 | 127.75743 | 36986 ft | 547 kts | 357° |
| 2026-04-25 22:52 | 29.10116 | 127.76457 | 36990 ft | 548 kts | 357° |
| 2026-04-25 22:52 | 29.16405 | 127.76450 | 36984 ft | 534 kts | 344° |
| 2026-04-25 22:53 | 29.21197 | 127.75491 | 36984 ft | 520 kts | 337° |
| 2026-04-25 22:53 | 29.24693 | 127.74521 | 36979 ft | 518 kts | 335° |
| 2026-04-25 22:53 | 29.31680 | 127.72469 | 36984 ft | 521 kts | 335° |
| 2026-04-25 22:54 | 29.38766 | 127.70599 | 36981 ft | 522 kts | 338° |
| 2026-04-25 22:54 | 29.45908 | 127.68942 | 36977 ft | 524 kts | 339° |
| 2026-04-25 22:55 | 29.53064 | 127.67390 | 36974 ft | 524 kts | 339° |
| 2026-04-25 22:55 | 29.60218 | 127.65874 | 36975 ft | 523 kts | 339° |
| 2026-04-25 22:56 | 29.67446 | 127.64328 | 36976 ft | 526 kts | 339° |
| 2026-04-25 22:56 | 29.74602 | 127.62796 | 36970 ft | 523 kts | 339° |
| 2026-04-25 22:57 | 29.81793 | 127.61249 | 36970 ft | 525 kts | 339° |
| 2026-04-25 22:57 | 29.88911 | 127.59709 | 36956 ft | 521 kts | 339° |
| 2026-04-25 22:58 | 29.96081 | 127.58151 | 36960 ft | 526 kts | 339° |
| 2026-04-25 22:58 | 30.03244 | 127.56598 | 36952 ft | 522 kts | 339° |
| 2026-04-25 22:59 | 30.10400 | 127.55044 | 36949 ft | 520 kts | 339° |
| 2026-04-25 22:59 | 30.17516 | 127.53494 | 36945 ft | 521 kts | 339° |
| 2026-04-25 23:00 | 30.24633 | 127.51942 | 36953 ft | 522 kts | 339° |
| 2026-04-25 23:00 | 30.31766 | 127.50377 | 36954 ft | 522 kts | 339° |
| 2026-04-25 23:01 | 30.38899 | 127.48825 | 36951 ft | 521 kts | 339° |
| 2026-04-25 23:01 | 30.45991 | 127.47271 | 36950 ft | 521 kts | 339° |
| 2026-04-25 23:02 | 30.53102 | 127.45712 | 36949 ft | 521 kts | 339° |
| 2026-04-25 23:02 | 30.60229 | 127.44144 | 36950 ft | 522 kts | 339° |
| 2026-04-25 23:03 | 30.67349 | 127.42577 | 36952 ft | 519 kts | 339° |
| 2026-04-25 23:03 | 30.74519 | 127.40995 | 36944 ft | 520 kts | 339° |
| 2026-04-25 23:04 | 30.80386 | 127.39709 | 36948 ft | 518 kts | 340° |
| 2026-04-25 23:04 | 30.88628 | 127.37886 | 36949 ft | 517 kts | 340° |
| 2026-04-25 23:05 | 30.95721 | 127.36313 | 36944 ft | 521 kts | 340° |
| 2026-04-25 23:05 | 31.02787 | 127.34753 | 36945 ft | 513 kts | 339° |
| 2026-04-25 23:06 | 31.09874 | 127.33179 | 36945 ft | 515 kts | 339° |
| 2026-04-25 23:06 | 31.16884 | 127.31625 | 36941 ft | 511 kts | 340° |
| 2026-04-25 23:07 | 31.23887 | 127.30064 | 36942 ft | 513 kts | 339° |
| 2026-04-25 23:07 | 31.30883 | 127.28498 | 36945 ft | 513 kts | 340° |
| 2026-04-25 23:08 | 31.37864 | 127.26943 | 36944 ft | 512 kts | 340° |
| 2026-04-25 23:08 | 31.44861 | 127.25376 | 36953 ft | 514 kts | 340° |
| 2026-04-25 23:09 | 31.51852 | 127.23813 | 36953 ft | 511 kts | 340° |
| 2026-04-25 23:09 | 31.58831 | 127.22245 | 36955 ft | 512 kts | 340° |
| 2026-04-25 23:10 | 31.65834 | 127.20675 | 36959 ft | 510 kts | 340° |
| 2026-04-25 23:10 | 31.72817 | 127.19104 | 36957 ft | 509 kts | 341° |
| 2026-04-25 23:11 | 31.79752 | 127.17544 | 36961 ft | 507 kts | 341° |
| 2026-04-25 23:11 | 31.86691 | 127.15975 | 36960 ft | 507 kts | 341° |
| 2026-04-25 23:12 | 31.93598 | 127.14417 | 36964 ft | 504 kts | 341° |
| 2026-04-25 23:12 | 32.00494 | 127.12857 | 36970 ft | 501 kts | 341° |
| 2026-04-25 23:13 | 32.07353 | 127.11198 | 36962 ft | 502 kts | 338° |
| 2026-04-25 23:13 | 32.14001 | 127.09036 | 36973 ft | 494 kts | 335° |
| 2026-04-25 23:14 | 32.20609 | 127.06667 | 36967 ft | 495 kts | 335° |
| 2026-04-25 23:14 | 32.27171 | 127.04337 | 36969 ft | 496 kts | 336° |
| 2026-04-25 23:15 | 32.33786 | 127.02062 | 36974 ft | 482 kts | 336° |
| 2026-04-25 23:15 | 32.36964 | 127.01000 | 36972 ft | 467 kts | 336° |
| 2026-04-25 23:15 | 32.40043 | 126.99977 | 36979 ft | 459 kts | 336° |
| 2026-04-25 23:16 | 32.46244 | 126.97884 | 36596 ft | 469 kts | 336° |
| 2026-04-25 23:16 | 32.49379 | 126.96822 | 36099 ft | 468 kts | 336° |
| 2026-04-25 23:16 | 32.52490 | 126.95749 | 35494 ft | 468 kts | 336° |
| 2026-04-25 23:17 | 32.55630 | 126.94591 | 34824 ft | 467 kts | 335° |
| 2026-04-25 23:17 | 32.58684 | 126.93417 | 34133 ft | 467 kts | 334° |
| 2026-04-25 23:17 | 32.61768 | 126.92210 | 33444 ft | 468 kts | 335° |
| 2026-04-25 23:17 | 32.64880 | 126.90984 | 32738 ft | 469 kts | 335° |
| 2026-04-25 23:18 | 32.67944 | 126.89779 | 32007 ft | 470 kts | 335° |
| 2026-04-25 23:18 | 32.71074 | 126.88551 | 31234 ft | 471 kts | 336° |
| 2026-04-25 23:18 | 32.74148 | 126.87350 | 30467 ft | 471 kts | 337° |
| 2026-04-25 23:18 | 32.77260 | 126.86139 | 29749 ft | 469 kts | 338° |
| 2026-04-25 23:19 | 32.80327 | 126.84951 | 29143 ft | 463 kts | 338° |
| 2026-04-25 23:19 | 32.83387 | 126.83769 | 28539 ft | 458 kts | 338° |
| 2026-04-25 23:19 | 32.86398 | 126.82607 | 27930 ft | 452 kts | 339° |
| 2026-04-25 23:19 | 32.89347 | 126.81468 | 27337 ft | 446 kts | 339° |
| 2026-04-25 23:20 | 32.92282 | 126.80334 | 26741 ft | 441 kts | 339° |
| 2026-04-25 23:20 | 32.95166 | 126.79217 | 26156 ft | 435 kts | 340° |
| 2026-04-25 23:20 | 32.98024 | 126.78109 | 25566 ft | 430 kts | 340° |
| 2026-04-25 23:20 | 33.00866 | 126.77007 | 24978 ft | 425 kts | 340° |
| 2026-04-25 23:21 | 33.03656 | 126.75926 | 24398 ft | 420 kts | 340° |
| 2026-04-25 23:21 | 33.06413 | 126.74860 | 23832 ft | 415 kts | 340° |
| 2026-04-25 23:21 | 33.09161 | 126.73798 | 23250 ft | 409 kts | 340° |
| 2026-04-25 23:21 | 33.11840 | 126.72763 | 22687 ft | 404 kts | 340° |
| 2026-04-25 23:22 | 33.14502 | 126.71732 | 22119 ft | 399 kts | 340° |
| 2026-04-25 23:22 | 33.17129 | 126.70715 | 21556 ft | 394 kts | 340° |
| 2026-04-25 23:22 | 33.19695 | 126.69721 | 21010 ft | 389 kts | 340° |
| 2026-04-25 23:23 | 33.24796 | 126.67739 | 19906 ft | 386 kts | 340° |
| 2026-04-25 23:23 | 33.27350 | 126.66743 | 19359 ft | 387 kts | 340° |
| 2026-04-25 23:23 | 33.29884 | 126.65758 | 18792 ft | 378 kts | 340° |
| 2026-04-25 23:23 | 33.32364 | 126.64796 | 18254 ft | 367 kts | 340° |
| 2026-04-25 23:24 | 33.34827 | 126.63834 | 17719 ft | 378 kts | 339° |
| 2026-04-25 23:24 | 33.37311 | 126.62846 | 17151 ft | 376 kts | 338° |
| 2026-04-25 23:24 | 33.39700 | 126.61720 | 16585 ft | 360 kts | 334° |
| 2026-04-25 23:24 | 33.41955 | 126.60441 | 16045 ft | 365 kts | 331° |
| 2026-04-25 23:25 | 33.44231 | 126.59035 | 15477 ft | 367 kts | 330° |
| 2026-04-25 23:25 | 33.46419 | 126.57653 | 14922 ft | 353 kts | 330° |
| 2026-04-25 23:25 | 33.48586 | 126.56287 | 14391 ft | 357 kts | 330° |
| 2026-04-25 23:25 | 33.50810 | 126.54892 | 13826 ft | 361 kts | 330° |
| 2026-04-25 23:26 | 33.53038 | 126.53511 | 13256 ft | 358 kts | 330° |
| 2026-04-25 23:26 | 33.55208 | 126.52178 | 12692 ft | 343 kts | 330° |
| 2026-04-25 23:26 | 33.57327 | 126.50880 | 12164 ft | 350 kts | 330° |
| 2026-04-25 23:26 | 33.59497 | 126.49548 | 11599 ft | 351 kts | 331° |
| 2026-04-25 23:27 | 33.61633 | 126.48238 | 11043 ft | 337 kts | 331° |
| 2026-04-25 23:27 | 33.63722 | 126.46958 | 10676 ft | 337 kts | 331° |
| 2026-04-25 23:27 | 33.65753 | 126.45710 | 10474 ft | 321 kts | 331° |
| 2026-04-25 23:27 | 33.67668 | 126.44537 | 10364 ft | 296 kts | 330° |
| 2026-04-25 23:28 | 33.69476 | 126.43375 | 10253 ft | 299 kts | 326° |
| 2026-04-25 23:28 | 33.71067 | 126.41802 | 10061 ft | 287 kts | 306° |
| 2026-04-25 23:28 | 33.71909 | 126.39761 | 9730 ft | 268 kts | 281° |
| 2026-04-25 23:28 | 33.72200 | 126.37590 | 9382 ft | 267 kts | 275° |
| 2026-04-25 23:29 | 33.72429 | 126.35369 | 9132 ft | 263 kts | 276° |
| 2026-04-25 23:29 | 33.72675 | 126.33273 | 9039 ft | 243 kts | 276° |
| 2026-04-25 23:29 | 33.72932 | 126.31291 | 9011 ft | 244 kts | 276° |
| 2026-04-25 23:29 | 33.73203 | 126.29253 | 9007 ft | 249 kts | 277° |
| 2026-04-25 23:30 | 33.73477 | 126.27205 | 8948 ft | 248 kts | 277° |
| 2026-04-25 23:30 | 33.73748 | 126.25164 | 8980 ft | 249 kts | 277° |
| 2026-04-25 23:30 | 33.74007 | 126.23125 | 8889 ft | 245 kts | 274° |
| 2026-04-25 23:30 | 33.74021 | 126.21085 | 8932 ft | 245 kts | 263° |
| 2026-04-25 23:31 | 33.73791 | 126.19051 | 8929 ft | 246 kts | 259° |
| 2026-04-25 23:31 | 33.73508 | 126.17027 | 8932 ft | 246 kts | 259° |
| 2026-04-25 23:31 | 33.73243 | 126.15003 | 8932 ft | 246 kts | 260° |
| 2026-04-25 23:31 | 33.72983 | 126.12994 | 8930 ft | 245 kts | 257° |
| 2026-04-25 23:32 | 33.72477 | 126.11041 | 8928 ft | 243 kts | 245° |
| 2026-04-25 23:32 | 33.71759 | 126.09222 | 8931 ft | 245 kts | 242° |
| 2026-04-25 23:32 | 33.70991 | 126.07395 | 8923 ft | 244 kts | 242° |
| 2026-04-25 23:32 | 33.70244 | 126.05556 | 8928 ft | 245 kts | 243° |
| 2026-04-25 23:33 | 33.69488 | 126.03717 | 8931 ft | 245 kts | 239° |
| 2026-04-25 23:33 | 33.68509 | 126.02052 | 8928 ft | 244 kts | 229° |
| 2026-04-25 23:33 | 33.67371 | 126.00569 | 8921 ft | 244 kts | 226° |
| 2026-04-25 23:33 | 33.66184 | 125.99083 | 8923 ft | 245 kts | 226° |
| 2026-04-25 23:34 | 33.65023 | 125.97587 | 8915 ft | 244 kts | 227° |
| 2026-04-25 23:34 | 33.63865 | 125.96126 | 8917 ft | 244 kts | 222° |
| 2026-04-25 23:34 | 33.62505 | 125.94901 | 8920 ft | 244 kts | 212° |
| 2026-04-25 23:34 | 33.61043 | 125.93883 | 8920 ft | 244 kts | 210° |
| 2026-04-25 23:35 | 33.59558 | 125.92883 | 8915 ft | 244 kts | 210° |
| 2026-04-25 23:35 | 33.58086 | 125.91855 | 8917 ft | 244 kts | 211° |
| 2026-04-25 23:35 | 33.56603 | 125.90869 | 8912 ft | 243 kts | 205° |
| 2026-04-25 23:35 | 33.55014 | 125.90211 | 8917 ft | 244 kts | 195° |
| 2026-04-25 23:36 | 33.53348 | 125.89748 | 8919 ft | 244 kts | 193° |
| 2026-04-25 23:36 | 33.51697 | 125.89310 | 8912 ft | 243 kts | 194° |
| 2026-04-25 23:36 | 33.50041 | 125.88837 | 8920 ft | 245 kts | 195° |
| 2026-04-25 23:36 | 33.48373 | 125.88429 | 8921 ft | 246 kts | 187° |
| 2026-04-25 23:37 | 33.46653 | 125.88383 | 8925 ft | 246 kts | 178° |
| 2026-04-25 23:37 | 33.44942 | 125.88525 | 8917 ft | 246 kts | 176° |
| 2026-04-25 23:37 | 33.43226 | 125.88680 | 8916 ft | 247 kts | 177° |
| 2026-04-25 23:37 | 33.41509 | 125.88802 | 8917 ft | 246 kts | 178° |
| 2026-04-25 23:38 | 33.39814 | 125.89031 | 8914 ft | 247 kts | 169° |
| 2026-04-25 23:38 | 33.38169 | 125.89619 | 8920 ft | 248 kts | 161° |
| 2026-04-25 23:38 | 33.36575 | 125.90351 | 8908 ft | 242 kts | 160° |
| 2026-04-25 23:38 | 33.34971 | 125.91090 | 8920 ft | 248 kts | 161° |
| 2026-04-25 23:39 | 33.33356 | 125.91799 | 8918 ft | 249 kts | 161° |
| 2026-04-25 23:39 | 33.31783 | 125.92673 | 8912 ft | 250 kts | 150° |
| 2026-04-25 23:39 | 33.30338 | 125.93868 | 8919 ft | 250 kts | 144° |
| 2026-04-25 23:39 | 33.29046 | 125.95231 | 8916 ft | 251 kts | 132° |
| 2026-04-25 23:40 | 33.28149 | 125.97040 | 8792 ft | 255 kts | 111° |
| 2026-04-25 23:40 | 33.27936 | 125.99136 | 8554 ft | 253 kts | 84° |
| 2026-04-25 23:40 | 33.28464 | 126.01063 | 8332 ft | 245 kts | 62° |
| 2026-04-25 23:40 | 33.29477 | 126.02664 | 8081 ft | 238 kts | 47° |
| 2026-04-25 23:41 | 33.30632 | 126.04030 | 7839 ft | 231 kts | 44° |
| 2026-04-25 23:41 | 33.31773 | 126.05335 | 7577 ft | 224 kts | 45° |
| 2026-04-25 23:41 | 33.32886 | 126.06637 | 7323 ft | 220 kts | 45° |
| 2026-04-25 23:41 | 33.33957 | 126.07913 | 7012 ft | 221 kts | 46° |
| 2026-04-25 23:42 | 33.35043 | 126.09219 | 6637 ft | 221 kts | 46° |
| 2026-04-25 23:42 | 33.36121 | 126.10517 | 6226 ft | 223 kts | 46° |
| 2026-04-25 23:42 | 33.37218 | 126.11841 | 5823 ft | 224 kts | 46° |
| 2026-04-25 23:42 | 33.38318 | 126.13171 | 5420 ft | 223 kts | 46° |
| 2026-04-25 23:43 | 33.39410 | 126.14488 | 5007 ft | 222 kts | 46° |
| 2026-04-25 23:43 | 33.40478 | 126.15774 | 4608 ft | 217 kts | 46° |
| 2026-04-25 23:43 | 33.41530 | 126.17030 | 4212 ft | 213 kts | 46° |
| 2026-04-25 23:43 | 33.42574 | 126.18282 | 3812 ft | 209 kts | 46° |
| 2026-04-25 23:44 | 33.43581 | 126.19496 | 3432 ft | 204 kts | 46° |
| 2026-04-25 23:44 | 33.44532 | 126.20725 | 3057 ft | 198 kts | 54° |
| 2026-04-25 23:44 | 33.45063 | 126.22173 | 2859 ft | 184 kts | 84° |
| 2026-04-25 23:44 | 33.44932 | 126.23656 | 2880 ft | 175 kts | 106° |
| 2026-04-25 23:45 | 33.44467 | 126.24972 | 2881 ft | 174 kts | 117° |
| 2026-04-25 23:45 | 33.43870 | 126.26234 | 2881 ft | 174 kts | 118° |
| 2026-04-25 23:45 | 33.43279 | 126.27499 | 2882 ft | 174 kts | 117° |
| 2026-04-25 23:45 | 33.42704 | 126.28773 | 2884 ft | 174 kts | 117° |
| 2026-04-25 23:46 | 33.42182 | 126.30080 | 2882 ft | 175 kts | 106° |
| 2026-04-25 23:46 | 33.42201 | 126.31514 | 2885 ft | 173 kts | 68° |
| 2026-04-25 23:46 | 33.42755 | 126.32777 | 2816 ft | 174 kts | 60° |
| 2026-04-25 23:46 | 33.43328 | 126.33969 | 2647 ft | 159 kts | 59° |
| 2026-04-25 23:47 | 33.43889 | 126.35078 | 2341 ft | 150 kts | 58° |
| 2026-04-25 23:47 | 33.44404 | 126.36073 | 2176 ft | 133 kts | 58° |
| 2026-04-25 23:47 | 33.44873 | 126.36980 | 1993 ft | 125 kts | 58° |
| 2026-04-25 23:47 | 33.45334 | 126.37868 | 1837 ft | 124 kts | 58° |
| 2026-04-25 23:48 | 33.45788 | 126.38745 | 1664 ft | 124 kts | 58° |
| 2026-04-25 23:48 | 33.46244 | 126.39626 | 1490 ft | 124 kts | 59° |
| 2026-04-25 23:48 | 33.46701 | 126.40507 | 1324 ft | 124 kts | 59° |
| 2026-04-25 23:48 | 33.47161 | 126.41396 | 1154 ft | 125 kts | 58° |
| 2026-04-25 23:49 | 33.47616 | 126.42275 | 988 ft | 125 kts | 59° |
| 2026-04-25 23:49 | 33.48073 | 126.43163 | 820 ft | 125 kts | 59° |
| 2026-04-25 23:49 | 33.48527 | 126.44040 | 655 ft | 124 kts | 58° |
| 2026-04-25 23:49 | 33.48990 | 126.44930 | 485 ft | 125 kts | 59° |
| 2026-04-25 23:50 | 33.49437 | 126.45821 | 318 ft | 124 kts | 61° |
| 2026-04-25 23:50 | 33.49909 | 126.46673 | 169 ft | 121 kts | 59° |
| 2026-04-25 23:50 | 33.50314 | 126.47485 | 84 ft | 96 kts | 57° |
| 2026-04-25 23:50 | 33.50522 | 126.47892 | 81 ft | 42 kts | 58° |
| 2026-04-25 23:51 | 33.50678 | 126.48193 | 74 ft | 33 kts | 60° |
| 2026-04-25 23:51 | 33.50754 | 126.48374 | 70 ft | 14 kts | 76° |
| 2026-04-25 23:51 | 33.50763 | 126.48459 | 71 ft | 6 kts | 86° |
| 2026-04-25 23:51 | 33.50765 | 126.48505 | 72 ft | 4 kts | 86° |
| 2026-04-25 23:52 | 33.50766 | 126.48534 | 73 ft | 2 kts | 88° |
| 2026-04-25 23:52 | 33.50767 | 126.48578 | 73 ft | 7 kts | 89° |
| 2026-04-25 23:52 | 33.50767 | 126.48634 | 74 ft | 6 kts | 89° |
| 2026-04-25 23:52 | 33.50770 | 126.48692 | 75 ft | 7 kts | 84° |
| 2026-04-25 23:53 | 33.50783 | 126.48760 | 75 ft | 8 kts | 67° |
| 2026-04-25 23:53 | 33.50795 | 126.48817 | 76 ft | 6 kts | 96° |
| 2026-04-25 23:53 | 33.50779 | 126.48852 | 77 ft | 4 kts | 134° |
| 2026-04-25 23:53 | 33.50751 | 126.48878 | 79 ft | 3 kts | 146° |
| 2026-04-25 23:54 | 33.50738 | 126.48887 | 79 ft | 0 kts | 148° |
| 2026-04-25 23:54 | 33.50732 | 126.48891 | 80 ft | 0 kts | 148° |
| 2026-04-25 23:54 | 33.50719 | 126.48901 | 80 ft | 2 kts | 147° |
| 2026-04-25 23:55 | 33.50709 | 126.48907 | 81 ft | 0 kts | 174° |
| 2026-04-25 23:55 | 33.50687 | 126.48899 | 81 ft | 8 kts | 209° |
| 2026-04-25 23:55 | 33.50648 | 126.48853 | 82 ft | 6 kts | 233° |
| 2026-04-25 23:55 | 33.50626 | 126.48812 | 83 ft | 5 kts | 239° |
| 2026-04-25 23:56 | 33.50605 | 126.48780 | 83 ft | 4 kts | 204° |
| 2026-04-25 23:56 | 33.50584 | 126.48785 | 84 ft | 2 kts | 147° |
| 2026-04-25 23:56 | 33.50565 | 126.48801 | 85 ft | 2 kts | 146° |
| 2026-04-25 23:56 | 33.50548 | 126.48814 | 86 ft | 2 kts | 147° |
| 2026-04-25 23:57 | 33.50538 | 126.48821 | 86 ft | 1 kts | 149° |
| 2026-04-25 23:57 | 33.50524 | 126.48831 | 87 ft | 1 kts | 149° |
| 2026-04-25 23:57 | 33.50518 | 126.48836 | 87 ft | 0 kts | 149° |
| 2026-04-25 23:57 | 33.50517 | 126.48837 | 87 ft | 0 kts | 149° |
| 2026-04-25 23:58 | 33.50515 | 126.48837 | 87 ft | 0 kts | 149° |